Time;durP1;ratioP1;P1;durP2;ratioP2;P2;SDS_P1;SDS_P2;PMS_P1;PMS_P2;Temp;Humidity;BMP_temperature;BMP_pressure;BME280_temperature;BME280_humidity;BME280_pressure;Samples;Min_cycle;Max_cycle;Signal;HPM_P1;HPM_P2
2021/12/25 00:00:45;;;;;;;3.27;2.57;;;1.90;99.90;;;;;;5034874;28;20173;-63
2021/12/25 00:03:11;;;;;;;2.90;2.50;;;1.80;99.90;;;;;;5035076;28;20176;-63
2021/12/25 00:05:36;;;;;;;3.13;2.53;;;1.80;99.90;;;;;;5034808;28;20174;-63
2021/12/25 00:08:02;;;;;;;3.20;2.67;;;1.80;99.90;;;;;;5034023;28;20529;-65
2021/12/25 00:10:30;;;;;;;3.30;2.73;;;1.70;99.90;;;;;;5036240;28;20169;-64
2021/12/25 00:12:56;;;;;;;3.93;2.50;;;1.70;99.90;;;;;;5045762;28;20260;-64
2021/12/25 00:15:22;;;;;;;2.53;2.30;;;1.70;99.90;;;;;;5037104;28;20264;-63
2021/12/25 00:17:48;;;;;;;3.00;2.13;;;1.70;99.90;;;;;;5034411;28;20301;-63
2021/12/25 00:20:14;;;;;;;2.87;2.40;;;1.80;99.90;;;;;;5034093;28;20507;-63
2021/12/25 00:22:40;;;;;;;3.73;2.37;;;1.70;99.90;;;;;;5034473;28;20173;-63
2021/12/25 00:25:06;;;;;;;2.87;2.50;;;1.70;99.90;;;;;;5034594;28;20177;-64
2021/12/25 00:27:56;;;;;;;3.67;2.40;;;1.80;99.90;;;;;;5034670;28;20574;-63
2021/12/25 00:30:44;;;;;;;3.10;2.40;;;1.70;99.90;;;;;;5034783;28;20176;-63
2021/12/25 00:33:34;;;;;;;3.00;2.43;;;1.70;99.90;;;;;;5032857;28;20185;-63
2021/12/25 00:36:01;;;;;;;4.23;2.70;;;1.60;99.90;;;;;;5034331;28;20224;-63
2021/12/25 00:38:27;;;;;;;5.33;2.93;;;1.70;99.90;;;;;;5034112;28;20594;-64
2021/12/25 00:40:52;;;;;;;4.23;2.60;;;1.80;99.90;;;;;;5034042;28;20168;-64
2021/12/25 00:43:18;;;;;;;4.07;3.03;;;1.70;99.90;;;;;;5034217;28;20227;-64
2021/12/25 00:45:44;;;;;;;3.90;2.80;;;1.80;99.90;;;;;;5034153;28;20169;-64
2021/12/25 00:48:09;;;;;;;3.17;2.50;;;1.80;99.90;;;;;;5034147;28;20617;-63
2021/12/25 00:50:35;;;;;;;3.53;2.80;;;1.80;99.90;;;;;;5034162;28;20169;-64
2021/12/25 00:53:01;;;;;;;3.90;2.83;;;1.80;99.90;;;;;;5033839;28;20208;-65
2021/12/25 00:55:26;;;;;;;3.77;3.07;;;1.70;99.90;;;;;;5034012;28;20707;-63
2021/12/25 00:57:52;;;;;;;4.70;3.00;;;1.70;99.90;;;;;;5033747;28;20266;-63
2021/12/25 01:00:18;;;;;;;3.70;2.60;;;1.70;99.90;;;;;;5034651;28;20659;-64
2021/12/25 01:02:47;;;;;;;3.93;2.70;;;1.70;99.90;;;;;;5033614;28;20241;-64
2021/12/25 01:05:14;;;;;;;3.53;2.53;;;1.70;99.90;;;;;;5033741;28;20597;-64
2021/12/25 01:07:40;;;;;;;2.77;2.20;;;1.70;99.90;;;;;;5033780;28;20168;-64
2021/12/25 01:10:13;;;;;;;2.30;2.10;;;1.70;99.90;;;;;;5033621;28;20173;-64
2021/12/25 01:12:58;;;;;;;2.10;1.90;;;1.70;99.90;;;;;;5033813;28;20165;-63
2021/12/25 01:15:39;;;;;;;2.27;2.07;;;1.60;99.90;;;;;;5034753;28;20157;-63
2021/12/25 01:18:56;;;;;;;2.43;2.00;;;1.70;99.90;;;;;;5035326;28;20280;-64
2021/12/25 01:31:23;;;;;;;3.53;2.23;;;1.50;99.90;;;;;;5034899;28;20181;-63
2021/12/25 01:34:20;;;;;;;1.87;1.67;;;1.50;99.90;;;;;;5033909;28;20496;-64
2021/12/25 01:36:58;;;;;;;4.60;1.80;;;1.50;99.90;;;;;;5035300;28;20212;-63
2021/12/25 01:42:05;;;;;;;3.00;1.60;;;1.50;99.90;;;;;;5035322;28;20181;-64
2021/12/25 01:50:01;;;;;;;2.80;2.00;;;1.50;99.90;;;;;;5035440;28;20168;-63
2021/12/25 01:52:29;;;;;;;2.37;1.70;;;1.50;99.90;;;;;;5035396;28;20165;-63
2021/12/25 01:55:00;;;;;;;2.10;1.73;;;1.50;99.90;;;;;;5035742;28;20168;-63
2021/12/25 01:57:27;;;;;;;2.63;1.70;;;1.50;99.90;;;;;;5034449;28;20175;-63
2021/12/25 01:59:53;;;;;;;2.23;1.90;;;1.40;99.90;;;;;;5034217;28;20666;-63
2021/12/25 02:02:21;;;;;;;2.33;1.70;;;1.40;99.90;;;;;;5034994;28;20189;-63
2021/12/25 02:04:47;;;;;;;2.07;1.60;;;1.30;99.90;;;;;;5035053;28;20539;-63
2021/12/25 02:07:12;;;;;;;2.07;1.80;;;1.40;99.90;;;;;;5034366;28;20598;-64
2021/12/25 02:09:39;;;;;;;1.77;1.60;;;1.30;99.90;;;;;;5036160;28;20253;-62
2021/12/25 02:12:05;;;;;;;2.00;1.80;;;1.40;99.90;;;;;;5034892;28;20504;-62
2021/12/25 02:14:31;;;;;;;2.20;1.80;;;1.30;99.90;;;;;;5034261;28;20314;-63
2021/12/25 02:17:13;;;;;;;1.60;1.50;;;1.10;99.90;;;;;;5035265;28;20175;-63
2021/12/25 02:19:48;;;;;;;3.03;1.90;;;1.00;99.90;;;;;;5034835;28;20207;-62
2021/12/25 02:22:14;;;;;;;1.37;1.13;;;0.80;99.90;;;;;;5034831;28;20153;-63
2021/12/25 02:24:40;;;;;;;2.13;1.57;;;0.60;99.90;;;;;;5033841;28;20161;-63
2021/12/25 02:27:06;;;;;;;1.60;1.50;;;0.50;99.90;;;;;;5033487;28;20170;-65
2021/12/25 02:29:32;;;;;;;2.77;1.30;;;0.40;99.90;;;;;;5032108;28;20586;-63
2021/12/25 02:31:59;;;;;;;4.30;1.93;;;0.30;99.90;;;;;;5034404;28;20173;-62
2021/12/25 02:34:25;;;;;;;1.77;1.37;;;0.40;99.90;;;;;;5036479;28;20224;-63
2021/12/25 02:36:50;;;;;;;4.87;1.43;;;0.30;99.90;;;;;;5036766;28;20208;-63
2021/12/25 02:39:16;;;;;;;1.73;1.30;;;0.30;99.90;;;;;;5036461;28;20196;-64
2021/12/25 02:41:43;;;;;;;1.57;1.27;;;0.30;99.90;;;;;;5036492;28;20488;-63
2021/12/25 02:44:09;;;;;;;2.37;1.40;;;0.40;99.90;;;;;;5036472;28;20169;-62
2021/12/25 02:46:35;;;;;;;1.00;0.90;;;0.20;99.90;;;;;;5036381;28;20168;-63
2021/12/25 02:49:01;;;;;;;1.40;1.30;;;0.20;99.90;;;;;;5036870;28;20521;-63
2021/12/25 02:51:27;;;;;;;1.73;1.27;;;0.30;99.90;;;;;;5036513;28;20169;-63
2021/12/25 02:53:53;;;;;;;1.17;1.00;;;0.30;99.90;;;;;;5036348;28;20174;-63
2021/12/25 02:56:19;;;;;;;2.33;1.20;;;0.40;99.90;;;;;;5036298;28;20551;-63
2021/12/25 02:58:44;;;;;;;1.23;1.10;;;0.30;99.90;;;;;;5035955;28;20279;-63
2021/12/25 03:01:15;;;;;;;1.63;1.20;;;0.20;99.90;;;;;;5036347;28;20235;-63
2021/12/25 03:03:41;;;;;;;0.90;0.90;;;0.20;99.90;;;;;;5036193;28;20283;-63
2021/12/25 03:06:08;;;;;;;1.17;1.00;;;0.10;99.90;;;;;;5043855;28;20551;-63
2021/12/25 03:08:35;;;;;;;0.93;0.93;;;0.00;99.90;;;;;;5036113;28;20169;-63
2021/12/25 03:11:03;;;;;;;2.20;1.00;;;-0.20;99.90;;;;;;5035126;28;20187;-64
2021/12/25 03:15:55;;;;;;;1.97;1.10;;;-0.20;99.90;;;;;;5035546;28;20180;-63
2021/12/25 03:18:36;;;;;;;1.97;1.10;;;-0.30;99.90;;;;;;5035322;28;20207;-64
2021/12/25 03:21:04;;;;;;;3.57;1.27;;;-0.30;99.90;;;;;;5035491;28;20204;-64
2021/12/25 03:23:31;;;;;;;2.33;1.30;;;-0.50;99.90;;;;;;5035729;28;20173;-63
2021/12/25 03:25:59;;;;;;;1.20;1.10;;;-0.40;99.90;;;;;;5035305;28;20169;-63
2021/12/25 03:28:29;;;;;;;2.57;1.33;;;-0.50;99.90;;;;;;5035178;28;20272;-63
2021/12/25 03:30:59;;;;;;;1.10;1.00;;;-0.80;99.90;;;;;;5034218;28;20547;-62
2021/12/25 03:33:27;;;;;;;1.40;1.20;;;-0.60;99.90;;;;;;5036048;28;20255;-63
2021/12/25 03:35:53;;;;;;;1.60;1.47;;;-0.80;99.90;;;;;;5035420;28;20228;-63
2021/12/25 03:38:21;;;;;;;1.70;1.60;;;-0.90;99.90;;;;;;5035751;28;20197;-63
2021/12/25 03:40:49;;;;;;;3.37;2.00;;;-0.90;99.90;;;;;;5035189;28;20165;-64
2021/12/25 03:43:15;;;;;;;2.07;1.80;;;-0.70;99.90;;;;;;5035098;28;20200;-63
2021/12/25 03:45:41;;;;;;;4.13;1.80;;;-0.70;99.90;;;;;;5035107;28;20159;-63
2021/12/25 03:48:15;;;;;;;2.43;1.97;;;-0.90;99.90;;;;;;5035153;28;20178;-63
2021/12/25 03:58:55;;;;;;;5.00;2.50;;;-1.10;99.90;;;;;;5034702;28;20227;-63
2021/12/25 04:01:40;;;;;;;6.07;2.70;;;-1.10;99.90;;;;;;5035108;28;20165;-63
2021/12/25 04:06:54;;;;;;;6.93;3.67;;;-1.00;99.90;;;;;;5035125;28;20500;-63
2021/12/25 04:09:28;;;;;;;4.93;3.03;;;-0.80;99.90;;;;;;5035115;28;20170;-63
2021/12/25 04:11:56;;;;;;;3.90;3.07;;;-0.90;99.90;;;;;;5034295;28;20155;-64
2021/12/25 04:14:21;;;;;;;6.23;2.70;;;-0.80;99.90;;;;;;5034529;28;20167;-63
2021/12/25 04:16:47;;;;;;;3.83;2.60;;;-1.00;99.90;;;;;;5033085;28;20209;-64
2021/12/25 04:19:13;;;;;;;4.33;3.10;;;-0.90;99.90;;;;;;5034905;28;20280;-64
2021/12/25 04:21:48;;;;;;;5.33;2.77;;;-0.90;99.90;;;;;;5034519;28;20256;-64
2021/12/25 04:24:14;;;;;;;6.70;3.13;;;-0.70;99.90;;;;;;5034772;28;20499;-64
2021/12/25 04:26:42;;;;;;;5.70;3.07;;;-0.60;99.90;;;;;;5034757;28;20245;-64
2021/12/25 05:02:13;;;;;;;4.60;3.03;;;-0.80;99.90;;;;;;5031540;28;20271;-64
2021/12/25 05:04:44;;;;;;;5.03;3.37;;;-0.70;99.90;;;;;;5048072;28;20180;-64
2021/12/25 05:07:12;;;;;;;4.60;2.73;;;-0.70;99.90;;;;;;5033391;28;20197;-63
2021/12/25 05:09:38;;;;;;;3.83;2.60;;;-0.80;99.90;;;;;;5033965;28;20164;-63
2021/12/25 05:12:04;;;;;;;4.03;2.30;;;-0.70;99.90;;;;;;5032558;28;20651;-63
2021/12/25 05:14:29;;;;;;;5.27;3.03;;;-0.90;99.90;;;;;;5034035;28;20176;-63
2021/12/25 05:16:55;;;;;;;3.30;2.40;;;-1.00;99.90;;;;;;5033829;28;20171;-63
2021/12/25 05:19:21;;;;;;;4.83;2.40;;;-1.00;99.90;;;;;;5033989;28;20210;-63
2021/12/25 05:21:46;;;;;;;6.70;3.03;;;-0.70;99.90;;;;;;5033322;28;20161;-64
2021/12/25 05:24:12;;;;;;;3.80;2.47;;;-0.80;99.90;;;;;;5033982;28;20173;-63
2021/12/25 05:26:38;;;;;;;3.93;2.70;;;-0.80;99.90;;;;;;5034433;28;20168;-63
2021/12/25 05:29:05;;;;;;;7.00;2.70;;;-0.80;99.90;;;;;;5034650;28;20219;-64
2021/12/25 05:31:33;;;;;;;5.00;3.30;;;-0.80;99.90;;;;;;5033621;28;20526;-64
2021/12/25 05:33:59;;;;;;;3.50;2.73;;;-0.60;99.90;;;;;;5034494;28;20600;-64
2021/12/25 05:36:27;;;;;;;3.10;2.47;;;-0.80;99.90;;;;;;5033430;28;20165;-64
2021/12/25 05:38:58;;;;;;;4.10;2.70;;;-0.60;99.90;;;;;;5033968;28;20310;-64
2021/12/25 05:41:29;;;;;;;5.70;2.70;;;-0.80;99.90;;;;;;5033918;28;20175;-64
2021/12/25 05:43:54;;;;;;;3.07;2.43;;;-0.90;99.90;;;;;;5033567;28;20506;-63
2021/12/25 05:46:20;;;;;;;4.70;2.40;;;-0.90;99.90;;;;;;5033484;28;20162;-63
2021/12/25 05:48:48;;;;;;;4.90;3.20;;;-0.90;99.90;;;;;;5033614;28;20165;-63
2021/12/25 05:51:15;;;;;;;3.57;2.70;;;-0.80;99.90;;;;;;5034196;28;20161;-64
2021/12/25 05:53:40;;;;;;;3.03;2.63;;;-0.70;99.90;;;;;;5033012;28;20572;-64
2021/12/25 05:56:06;;;;;;;3.20;2.53;;;-0.70;99.90;;;;;;5033336;28;20243;-64
2021/12/25 05:58:32;;;;;;;4.10;2.77;;;-0.70;99.90;;;;;;5037135;28;20203;-67
2021/12/25 06:00:58;;;;;;;4.93;2.90;;;-0.90;99.90;;;;;;5033933;28;20229;-65
2021/12/25 06:03:23;;;;;;;3.43;2.57;;;-0.60;99.90;;;;;;5035075;28;20162;-65
2021/12/25 06:05:49;;;;;;;3.57;2.43;;;-0.80;99.90;;;;;;5035214;28;20172;-65
2021/12/25 06:08:15;;;;;;;2.57;2.30;;;-0.90;99.90;;;;;;5037623;28;20223;-64
2021/12/25 06:10:42;;;;;;;6.03;2.70;;;-0.80;99.90;;;;;;5037404;28;20208;-64
2021/12/25 06:13:14;;;;;;;3.53;2.70;;;-0.90;99.90;;;;;;5038997;28;20204;-64
2021/12/25 06:15:40;;;;;;;3.43;2.60;;;-0.80;99.90;;;;;;5038336;28;20651;-64
2021/12/25 06:18:08;;;;;;;4.57;2.77;;;-0.70;99.90;;;;;;5038698;28;20192;-63
2021/12/25 06:20:34;;;;;;;5.10;2.97;;;-0.80;99.90;;;;;;5038435;28;20161;-64
2021/12/25 06:23:00;;;;;;;4.20;2.83;;;-0.80;99.90;;;;;;5038872;28;20586;-63
2021/12/25 06:25:25;;;;;;;6.20;2.97;;;-0.90;99.90;;;;;;5037839;28;20161;-63
2021/12/25 06:27:51;;;;;;;4.47;2.87;;;-0.90;99.90;;;;;;5042526;28;20172;-63
2021/12/25 06:30:17;;;;;;;4.30;2.77;;;-0.90;99.90;;;;;;5049022;28;20169;-65
2021/12/25 06:32:42;;;;;;;3.83;2.83;;;-1.00;99.90;;;;;;5050029;28;20193;-64
2021/12/25 06:35:08;;;;;;;6.77;3.07;;;-1.00;99.90;;;;;;5046994;28;20226;-64
2021/12/25 06:37:34;;;;;;;3.20;2.77;;;-0.90;99.90;;;;;;5052028;28;20228;-64
2021/12/25 06:40:00;;;;;;;3.23;2.70;;;-1.10;99.90;;;;;;5050939;28;20218;-65
2021/12/25 06:42:26;;;;;;;4.03;2.37;;;-1.00;99.90;;;;;;5047385;28;20169;-64
2021/12/25 06:44:51;;;;;;;6.17;2.87;;;-1.10;99.90;;;;;;5050330;28;20188;-65
2021/12/25 06:47:17;;;;;;;5.70;3.13;;;-1.10;99.90;;;;;;5042754;28;20165;-65
2021/12/25 06:49:42;;;;;;;5.57;2.80;;;-1.20;99.90;;;;;;5044700;28;20225;-63
2021/12/25 06:52:08;;;;;;;3.73;2.60;;;-1.10;99.90;;;;;;5044317;28;20169;-63
2021/12/25 06:54:34;;;;;;;4.60;2.50;;;-1.00;99.90;;;;;;5038727;28;20314;-63
2021/12/25 06:57:01;;;;;;;4.07;2.63;;;-1.00;99.90;;;;;;5036978;28;20162;-64
2021/12/25 06:59:28;;;;;;;5.80;3.27;;;-0.90;99.90;;;;;;5036752;28;20287;-65
2021/12/25 07:01:54;;;;;;;4.17;3.00;;;-0.90;99.90;;;;;;5036868;28;20162;-63
2021/12/25 07:04:19;;;;;;;4.47;3.13;;;-0.90;99.90;;;;;;5036194;28;20161;-63
2021/12/25 07:06:45;;;;;;;3.60;2.90;;;-1.00;99.90;;;;;;5035565;28;20273;-63
2021/12/25 07:09:11;;;;;;;4.50;2.90;;;-1.00;99.90;;;;;;5036200;28;20207;-63
2021/12/25 07:11:37;;;;;;;3.03;2.40;;;-0.90;99.90;;;;;;5036148;28;20617;-64
2021/12/25 07:14:04;;;;;;;4.23;2.90;;;-1.00;99.90;;;;;;5036098;28;20162;-64
2021/12/25 07:16:31;;;;;;;3.70;3.00;;;-0.80;99.90;;;;;;5036137;28;20647;-64
2021/12/25 07:18:57;;;;;;;3.90;3.10;;;-1.00;99.90;;;;;;5035804;28;20201;-64
2021/12/25 07:21:23;;;;;;;4.97;2.47;;;-1.10;99.90;;;;;;5035850;28;20174;-63
2021/12/25 07:23:48;;;;;;;3.80;2.67;;;-1.00;99.90;;;;;;5040729;28;20225;-63
2021/12/25 07:26:17;;;;;;;5.53;2.57;;;-0.90;99.90;;;;;;5037365;28;20172;-64
2021/12/25 07:28:46;;;;;;;2.30;1.90;;;-1.20;99.90;;;;;;5035788;28;20245;-63
2021/12/25 07:31:12;;;;;;;3.33;2.17;;;-1.20;99.90;;;;;;5035765;28;20260;-64
2021/12/25 07:33:40;;;;;;;2.43;1.87;;;-1.20;99.90;;;;;;5036175;28;20255;-63
2021/12/25 07:36:08;;;;;;;2.63;1.87;;;-1.10;99.90;;;;;;5035342;28;20657;-64
2021/12/25 07:38:34;;;;;;;2.33;1.80;;;-1.10;99.90;;;;;;5035614;28;20489;-64
2021/12/25 07:41:00;;;;;;;1.73;1.63;;;-1.30;99.90;;;;;;5035524;28;20161;-64
2021/12/25 07:43:26;;;;;;;6.67;1.80;;;-1.30;99.90;;;;;;5035523;28;20263;-64
2021/12/25 07:45:52;;;;;;;3.13;1.80;;;-1.10;99.90;;;;;;5035400;28;20553;-64
2021/12/25 07:48:20;;;;;;;1.87;1.40;;;-1.20;99.90;;;;;;5035600;28;20173;-64
2021/12/25 07:50:47;;;;;;;1.50;1.37;;;-1.40;99.90;;;;;;5037099;28;20253;-63
2021/12/25 07:53:16;;;;;;;1.97;1.57;;;-1.40;99.90;;;;;;5040357;28;20161;-63
2021/12/25 07:55:42;;;;;;;2.17;1.60;;;-1.30;99.90;;;;;;5039736;28;20178;-65
2021/12/25 07:58:08;;;;;;;2.93;1.50;;;-1.10;99.90;;;;;;5037906;28;20204;-63
2021/12/25 08:00:34;;;;;;;4.10;1.80;;;-1.30;99.90;;;;;;5037525;28;20196;-64
2021/12/25 08:03:00;;;;;;;4.07;1.70;;;-1.20;99.90;;;;;;5034745;28;20170;-65
2021/12/25 08:05:25;;;;;;;2.70;1.60;;;-1.10;99.90;;;;;;5034894;28;20173;-63
2021/12/25 08:07:51;;;;;;;2.20;1.40;;;-1.10;99.90;;;;;;5034426;28;20690;-63
2021/12/25 08:10:19;;;;;;;2.40;1.53;;;-1.00;99.90;;;;;;5034496;28;20216;-64
2021/12/25 08:12:51;;;;;;;1.90;1.47;;;-1.00;99.90;;;;;;5034746;28;20161;-64
2021/12/25 08:15:19;;;;;;;3.13;1.63;;;-1.00;99.90;;;;;;5034585;28;20165;-64
2021/12/25 08:17:45;;;;;;;6.47;1.63;;;-1.00;99.90;;;;;;5034484;28;20198;-62
2021/12/25 08:20:12;;;;;;;1.43;1.33;;;-1.20;99.90;;;;;;5034420;28;20180;-63
2021/12/25 08:22:40;;;;;;;2.23;1.50;;;-1.20;99.90;;;;;;5035111;28;20179;-63
2021/12/25 08:25:06;;;;;;;2.97;1.43;;;-1.20;99.90;;;;;;5035002;28;20176;-63
2021/12/25 08:27:33;;;;;;;1.40;1.30;;;-1.10;99.90;;;;;;5034405;28;20187;-64
2021/12/25 08:29:58;;;;;;;2.87;1.73;;;-1.40;99.90;;;;;;5033895;28;20191;-64
2021/12/25 08:32:25;;;;;;;1.50;1.40;;;-1.20;99.90;;;;;;5034529;28;20584;-64
2021/12/25 08:34:50;;;;;;;2.10;1.60;;;-1.20;99.90;;;;;;5034455;28;20337;-63
2021/12/25 08:37:21;;;;;;;1.97;1.60;;;-1.30;99.90;;;;;;5034374;28;20161;-63
2021/12/25 08:39:46;;;;;;;2.43;1.57;;;-1.10;99.90;;;;;;5034528;28;20201;-63
2021/12/25 08:42:12;;;;;;;3.57;2.13;;;-1.00;99.90;;;;;;5034222;28;20175;-64
2021/12/25 08:44:42;;;;;;;1.83;1.40;;;-0.90;99.90;;;;;;5034370;28;20171;-63
2021/12/25 08:47:12;;;;;;;3.53;2.03;;;-1.00;99.90;;;;;;5034430;28;20621;-64
2021/12/25 08:49:40;;;;;;;3.67;1.90;;;-0.90;99.90;;;;;;5036237;28;20205;-63
2021/12/25 08:52:10;;;;;;;2.13;1.53;;;-1.00;99.90;;;;;;5034092;28;20223;-63
2021/12/25 08:54:36;;;;;;;2.53;1.70;;;-1.10;99.90;;;;;;5034018;28;20162;-62
2021/12/25 08:57:03;;;;;;;4.30;1.97;;;-1.00;99.90;;;;;;5033838;28;20172;-63
2021/12/25 08:59:29;;;;;;;2.13;1.37;;;-1.00;99.90;;;;;;5033772;28;20206;-63
2021/12/25 09:01:56;;;;;;;1.40;1.30;;;-1.10;99.90;;;;;;5033535;28;20521;-64
2021/12/25 09:04:21;;;;;;;2.73;1.43;;;-1.30;99.90;;;;;;5033869;28;20200;-63
2021/12/25 09:06:47;;;;;;;2.43;1.60;;;-1.20;99.90;;;;;;5034046;28;20168;-63
2021/12/25 09:09:13;;;;;;;4.57;1.70;;;-1.00;99.90;;;;;;5033087;28;20177;-63
2021/12/25 09:11:40;;;;;;;6.03;2.10;;;-1.10;99.90;;;;;;5033452;28;20197;-63
2021/12/25 09:14:06;;;;;;;2.10;1.60;;;-1.10;99.90;;;;;;5034567;28;20189;-63
2021/12/25 09:16:32;;;;;;;2.00;1.73;;;-1.10;99.90;;;;;;5035247;28;20173;-65
2021/12/25 09:18:58;;;;;;;4.27;2.47;;;-1.30;99.90;;;;;;5039828;28;20216;-63
2021/12/25 09:21:24;;;;;;;2.97;1.70;;;-1.10;99.90;;;;;;5040257;28;20597;-63
2021/12/25 09:23:50;;;;;;;1.90;1.57;;;-0.80;99.90;;;;;;5040273;28;20655;-63
2021/12/25 09:26:17;;;;;;;2.27;1.70;;;-0.80;99.90;;;;;;5040094;28;20188;-64
2021/12/25 09:28:43;;;;;;;2.03;1.53;;;-0.70;99.90;;;;;;5038570;28;20161;-65
2021/12/25 09:31:09;;;;;;;4.83;2.20;;;-0.80;99.90;;;;;;5037009;28;20177;-64
2021/12/25 09:33:35;;;;;;;2.67;1.90;;;-0.90;99.90;;;;;;5037963;28;20188;-63
2021/12/25 09:36:02;;;;;;;2.87;2.03;;;-0.80;99.90;;;;;;5033750;28;20231;-63
2021/12/25 09:38:29;;;;;;;4.20;2.20;;;-0.70;99.90;;;;;;5033380;28;20208;-65
2021/12/25 09:40:59;;;;;;;2.47;1.97;;;-0.80;99.90;;;;;;5036642;28;20207;-62
2021/12/25 09:43:25;;;;;;;3.30;2.40;;;-1.00;99.90;;;;;;5040009;28;20512;-64
2021/12/25 09:45:53;;;;;;;4.27;2.40;;;-0.80;99.90;;;;;;5040836;28;20168;-63
2021/12/25 09:48:18;;;;;;;4.90;2.13;;;-0.90;99.90;;;;;;5040690;28;20154;-65
2021/12/25 09:50:44;;;;;;;2.80;1.83;;;-0.80;99.90;;;;;;5040381;28;20156;-64
2021/12/25 09:53:12;;;;;;;3.03;1.90;;;-0.80;99.90;;;;;;5040157;28;20513;-62
2021/12/25 09:55:38;;;;;;;3.43;1.60;;;-0.60;99.90;;;;;;5039681;28;20196;-63
2021/12/25 09:58:05;;;;;;;6.17;1.70;;;-0.50;99.90;;;;;;5039919;28;20159;-63
2021/12/25 10:00:33;;;;;;;4.43;2.10;;;-0.60;99.90;;;;;;5040026;28;20166;-62
2021/12/25 10:02:58;;;;;;;3.13;1.90;;;-0.60;99.90;;;;;;5040062;28;20241;-64
2021/12/25 10:05:35;;;;;;;3.13;1.80;;;-0.60;99.90;;;;;;5040111;28;20248;-65
2021/12/25 10:08:11;;;;;;;4.77;1.60;;;-0.70;99.90;;;;;;5040245;28;20167;-63
2021/12/25 10:10:47;;;;;;;3.13;1.50;;;-0.70;99.90;;;;;;5040075;28;20469;-62
2021/12/25 10:13:23;;;;;;;6.73;1.80;;;-0.60;99.90;;;;;;5038537;28;20616;-64
2021/12/25 10:15:50;;;;;;;2.43;1.50;;;-0.70;99.90;;;;;;5045112;28;20171;-63
2021/12/25 10:18:25;;;;;;;1.77;1.30;;;-0.70;99.90;;;;;;5046520;28;20211;-63
2021/12/25 10:20:51;;;;;;;1.50;1.40;;;-0.60;99.90;;;;;;5039291;28;20187;-63
2021/12/25 10:23:22;;;;;;;2.87;2.30;;;-0.50;99.90;;;;;;5039773;28;20163;-62
2021/12/25 10:25:52;;;;;;;1.80;1.60;;;-0.50;99.90;;;;;;5039405;28;20157;-63
2021/12/25 10:28:27;;;;;;;1.80;1.53;;;-0.40;99.90;;;;;;5040300;28;20165;-62
2021/12/25 10:30:58;;;;;;;2.47;1.60;;;-0.40;99.90;;;;;;5039231;28;20581;-62
2021/12/25 10:33:31;;;;;;;1.60;1.50;;;-0.60;99.90;;;;;;5039961;28;20185;-62
2021/12/25 10:36:10;;;;;;;2.53;1.63;;;-0.40;99.90;;;;;;5038843;28;20235;-65
2021/12/25 10:38:37;;;;;;;4.10;1.90;;;-0.40;99.90;;;;;;5039505;28;20211;-62
2021/12/25 10:41:22;;;;;;;3.97;2.00;;;-0.30;99.90;;;;;;5039497;28;20242;-63
2021/12/25 10:43:52;;;;;;;3.73;2.90;;;-0.50;99.90;;;;;;5039403;28;20159;-65
2021/12/25 10:46:19;;;;;;;2.77;1.77;;;-0.30;99.90;;;;;;5039754;28;20167;-64
2021/12/25 10:48:47;;;;;;;2.40;1.83;;;-0.40;99.90;;;;;;5037406;28;20424;-64
2021/12/25 10:51:29;;;;;;;3.30;2.23;;;-0.50;99.90;;;;;;5059149;28;20169;-63
2021/12/25 10:53:56;;;;;;;1.90;1.60;;;-0.40;99.90;;;;;;5055565;28;20165;-63
2021/12/25 10:56:32;;;;;;;2.23;1.70;;;-0.50;99.90;;;;;;5056623;28;20156;-63
2021/12/25 10:59:05;;;;;;;2.07;1.60;;;-0.70;99.90;;;;;;5056198;28;20223;-63
2021/12/25 11:01:38;;;;;;;1.93;1.70;;;-0.60;99.90;;;;;;5056024;28;20158;-62
2021/12/25 11:04:04;;;;;;;1.90;1.70;;;-0.60;99.90;;;;;;5056259;28;20163;-62
2021/12/25 11:06:30;;;;;;;2.60;1.90;;;-0.50;99.90;;;;;;5056031;28;20171;-62
2021/12/25 11:08:58;;;;;;;3.40;1.90;;;-0.70;99.90;;;;;;5056195;28;20567;-63
2021/12/25 11:11:24;;;;;;;6.40;2.03;;;-0.70;99.90;;;;;;5055955;28;20187;-63
2021/12/25 11:13:55;;;;;;;2.57;1.83;;;-0.40;99.90;;;;;;5056228;28;20605;-64
2021/12/25 11:16:27;;;;;;;4.30;2.83;;;-0.50;99.90;;;;;;5056218;28;20165;-63
2021/12/25 11:19:07;;;;;;;3.33;2.60;;;-0.40;99.90;;;;;;5055855;28;20202;-64
2021/12/25 11:21:35;;;;;;;2.87;1.90;;;-0.40;99.90;;;;;;5055712;28;20181;-63
2021/12/25 11:24:09;;;;;;;4.13;2.03;;;-0.50;99.90;;;;;;5055890;28;20164;-64
2021/12/25 11:26:36;;;;;;;7.33;2.53;;;-0.50;99.90;;;;;;5055382;28;20167;-64
2021/12/25 11:29:07;;;;;;;5.83;3.20;;;-0.40;99.90;;;;;;5055485;28;20218;-63
2021/12/25 11:31:33;;;;;;;2.50;2.30;;;-0.60;99.90;;;;;;5055486;28;20167;-64
2021/12/25 11:33:59;;;;;;;2.57;1.80;;;-0.60;99.90;;;;;;5053143;28;20282;-65
2021/12/25 11:36:25;;;;;;;3.47;2.07;;;-0.80;99.90;;;;;;5055443;28;20165;-64
2021/12/25 11:38:52;;;;;;;2.17;1.93;;;-0.80;99.90;;;;;;5055213;28;20217;-63
2021/12/25 11:41:18;;;;;;;3.67;2.10;;;-0.60;99.90;;;;;;5057412;28;20172;-64
2021/12/25 11:43:46;;;;;;;5.40;2.90;;;-0.70;99.90;;;;;;5059971;28;20188;-64
2021/12/25 11:46:14;;;;;;;3.20;2.27;;;-0.70;99.90;;;;;;5055265;28;20168;-63
2021/12/25 11:48:40;;;;;;;3.17;2.23;;;-0.60;99.90;;;;;;5055048;28;20158;-63
2021/12/25 11:51:22;;;;;;;4.37;2.60;;;-0.60;99.90;;;;;;5055180;28;20247;-63
2021/12/25 11:58:50;;;;;;;7.13;3.87;;;-0.80;99.90;;;;;;5055107;28;20242;-63
2021/12/25 12:01:27;;;;;;;10.07;6.13;;;-0.90;99.90;;;;;;5055213;28;20227;-63
2021/12/25 12:03:57;;;;;;;7.20;3.50;;;-1.00;99.90;;;;;;5054060;28;20591;-63
2021/12/25 12:06:47;;;;;;;5.73;3.20;;;-0.80;99.90;;;;;;5055069;28;20168;-63
2021/12/25 12:09:15;;;;;;;2.40;1.97;;;-0.90;99.90;;;;;;5057013;28;20172;-63
2021/12/25 12:11:44;;;;;;;4.23;2.80;;;-1.10;99.90;;;;;;5061986;28;20167;-63
2021/12/25 12:14:15;;;;;;;5.80;5.10;;;-1.00;99.90;;;;;;5062490;28;20165;-62
2021/12/25 12:16:48;;;;;;;6.23;2.47;;;-1.20;99.90;;;;;;5065171;28;20297;-63
2021/12/25 12:19:33;;;;;;;4.03;2.87;;;-0.80;99.90;;;;;;5064285;28;20198;-64
2021/12/25 12:22:00;;;;;;;8.10;4.70;;;-1.20;99.90;;;;;;5059292;28;20266;-63
2021/12/25 12:24:45;;;;;;;8.23;4.17;;;-0.90;99.90;;;;;;5054455;28;20212;-64
2021/12/25 12:27:11;;;;;;;12.20;8.43;;;-0.90;99.90;;;;;;5053215;28;20180;-62
2021/12/25 12:29:39;;;;;;;4.07;2.90;;;-1.00;99.90;;;;;;5053632;28;20180;-63
2021/12/25 12:32:06;;;;;;;9.00;2.40;;;-0.80;99.90;;;;;;5054442;28;20190;-63
2021/12/25 12:34:36;;;;;;;7.27;2.50;;;-0.70;99.90;;;;;;5059548;28;20258;-64
2021/12/25 12:37:14;;;;;;;3.93;2.37;;;-0.90;99.90;;;;;;5067332;28;20598;-64
2021/12/25 12:39:42;;;;;;;4.33;2.60;;;-0.80;99.90;;;;;;5068572;28;20199;-66
2021/12/25 12:42:11;;;;;;;10.13;2.67;;;-0.90;99.90;;;;;;5066054;28;20207;-63
2021/12/25 12:44:37;;;;;;;4.67;3.10;;;-1.00;99.90;;;;;;5065011;28;20205;-63
2021/12/25 12:47:15;;;;;;;5.27;2.77;;;-1.00;99.90;;;;;;5055409;28;20581;-63
2021/12/25 12:49:49;;;;;;;6.20;3.77;;;-1.00;99.90;;;;;;5055175;28;20184;-63
2021/12/25 12:52:17;;;;;;;5.13;2.53;;;-1.00;99.90;;;;;;5053038;28;20220;-63
2021/12/25 12:54:50;;;;;;;5.37;2.60;;;-1.10;99.90;;;;;;5054094;28;20315;-64
2021/12/25 12:57:22;;;;;;;4.50;2.70;;;-0.90;99.90;;;;;;5054039;28;20170;-64
2021/12/25 12:59:52;;;;;;;10.63;4.73;;;-0.90;99.90;;;;;;5054311;28;20198;-64
2021/12/25 13:02:20;;;;;;;4.07;2.00;;;-1.00;99.90;;;;;;5053932;28;20174;-63
2021/12/25 13:04:53;;;;;;;3.87;2.80;;;-1.20;99.90;;;;;;5054216;28;20310;-65
2021/12/25 13:07:22;;;;;;;3.07;2.20;;;-1.30;99.90;;;;;;5054154;28;20242;-65
2021/12/25 13:10:26;;;;;;;3.43;2.10;;;-1.10;99.90;;;;;;5058652;28;20257;-63
2021/12/25 13:13:06;;;;;;;4.43;2.73;;;-0.80;99.90;;;;;;5037981;28;20192;-63
2021/12/25 13:15:33;;;;;;;3.17;2.40;;;-1.00;99.90;;;;;;5033858;28;20239;-63
2021/12/25 13:18:02;;;;;;;4.10;2.97;;;-1.20;99.90;;;;;;5016429;28;20540;-62
2021/12/25 13:20:33;;;;;;;5.37;3.27;;;-1.20;99.90;;;;;;5033984;28;20161;-63
2021/12/25 13:23:01;;;;;;;3.93;2.70;;;-1.20;99.90;;;;;;5033864;28;20231;-64
2021/12/25 13:25:27;;;;;;;3.80;2.40;;;-1.30;99.90;;;;;;5034026;28;20515;-64
2021/12/25 13:28:02;;;;;;;7.28;3.58;;;-1.20;99.90;;;;;;5033066;28;20397;-62
2021/12/25 13:30:31;;;;;;;8.00;3.70;;;-1.40;99.90;;;;;;5033865;28;20163;-64
2021/12/25 13:33:08;;;;;;;6.83;3.63;;;-1.30;99.90;;;;;;5034167;28;20184;-64
2021/12/25 13:35:33;;;;;;;8.77;4.37;;;-1.20;99.90;;;;;;5033555;28;20674;-63
2021/12/25 13:38:00;;;;;;;8.10;2.90;;;-1.30;99.90;;;;;;5033661;28;20187;-64
2021/12/25 13:40:27;;;;;;;6.07;2.63;;;-1.30;99.90;;;;;;5033966;28;20235;-64
2021/12/25 13:42:53;;;;;;;4.57;2.43;;;-1.30;99.90;;;;;;5034109;28;20165;-64
2021/12/25 13:45:20;;;;;;;3.97;2.60;;;-1.30;99.90;;;;;;5033943;28;20179;-64
2021/12/25 13:47:46;;;;;;;5.80;2.77;;;-1.30;99.90;;;;;;5030337;28;20200;-64
2021/12/25 13:50:12;;;;;;;5.57;2.93;;;-1.50;99.90;;;;;;5033545;28;20610;-63
2021/12/25 13:52:42;;;;;;;5.17;2.80;;;-1.50;99.90;;;;;;5034412;28;20166;-64
2021/12/25 13:55:24;;;;;;;4.73;2.70;;;-1.50;99.90;;;;;;5033755;28;20204;-64
2021/12/25 13:57:54;;;;;;;5.00;2.97;;;-1.40;99.90;;;;;;5033570;28;20172;-64
2021/12/25 14:00:24;;;;;;;8.57;2.70;;;-1.50;99.90;;;;;;5033288;28;20202;-66
2021/12/25 14:02:53;;;;;;;10.33;4.13;;;-1.60;99.90;;;;;;5033752;28;20161;-64
2021/12/25 14:05:22;;;;;;;7.20;3.43;;;-1.60;99.90;;;;;;5033671;28;20608;-65